Sedgefield, North Carolina
Current Conditions -  °F | °C
As of 2:54 AM on Monday 24 Nov 2014 (Local Time) from KGSO Reporting Station
Broken Clouds Broken Clouds  
Wind Chill: 61°   Ceiling: 2700
Heat Index: 61°   Visibility: 10mi
Dew Point: 56°   Wind: 16mph
Humidity: 83%   Direction: 220°SW
Pressure: 29.73"   Gusts: 22mph
Location:  36.011°N, 79.8751°W
Report Text: KGSO 240754Z 22014G19KT 10SM SCT020 BKN027 BKN033 16/13 A2973 RMK AO2 SLP062 T01610133
Loading
Personal Weather Stations






























Interactive Weather Map New forecast layout! Learn more

10-Day Weather Forecast

Advertisements
Track Severe Weather on mobile